sensor_id;sensor_type;location;lat;lon;timestamp;P1;durP1;ratioP1;P2;durP2;ratioP2
68577;SDS011;61668;45.388;11.784;2022-10-16T00:01:26;68.80;;;33.90;;
68577;SDS011;61668;45.388;11.784;2022-10-16T00:03:54;64.00;;;34.30;;
68577;SDS011;61668;45.388;11.784;2022-10-16T00:06:22;68.70;;;32.70;;
68577;SDS011;61668;45.388;11.784;2022-10-16T00:08:50;69.10;;;34.40;;
68577;SDS011;61668;45.388;11.784;2022-10-16T00:11:24;66.80;;;34.90;;
68577;SDS011;61668;45.388;11.784;2022-10-16T00:13:56;67.90;;;31.80;;
68577;SDS011;61668;45.388;11.784;2022-10-16T00:16:23;71.40;;;33.50;;
68577;SDS011;61668;45.388;11.784;2022-10-16T00:18:49;68.20;;;34.50;;
68577;SDS011;61668;45.388;11.784;2022-10-16T00:21:18;70.70;;;34.10;;
68577;SDS011;61668;45.388;11.784;2022-10-16T00:23:45;72.00;;;35.50;;
68577;SDS011;61668;45.388;11.784;2022-10-16T00:26:13;67.70;;;34.40;;
68577;SDS011;61668;45.388;11.784;2022-10-16T00:28:47;70.60;;;34.60;;
68577;SDS011;61668;45.388;11.784;2022-10-16T00:31:14;71.40;;;33.20;;
68577;SDS011;61668;45.388;11.784;2022-10-16T00:33:40;70.70;;;33.00;;
68577;SDS011;61668;45.388;11.784;2022-10-16T00:36:08;68.30;;;32.00;;
68577;SDS011;61668;45.388;11.784;2022-10-16T00:38:35;65.70;;;32.50;;
68577;SDS011;61668;45.388;11.784;2022-10-16T00:41:03;68.90;;;32.80;;
68577;SDS011;61668;45.388;11.784;2022-10-16T00:43:53;68.10;;;32.20;;
68577;SDS011;61668;45.388;11.784;2022-10-16T00:46:25;68.30;;;33.10;;
68577;SDS011;61668;45.388;11.784;2022-10-16T00:49:18;67.20;;;33.00;;
68577;SDS011;61668;45.388;11.784;2022-10-16T00:51:50;71.70;;;33.20;;
68577;SDS011;61668;45.388;11.784;2022-10-16T00:54:21;64.90;;;32.90;;
68577;SDS011;61668;45.388;11.784;2022-10-16T00:56:51;68.30;;;30.60;;
68577;SDS011;61668;45.388;11.784;2022-10-16T01:01:57;72.70;;;33.00;;
68577;SDS011;61668;45.388;11.784;2022-10-16T01:04:24;73.00;;;36.60;;
68577;SDS011;61668;45.388;11.784;2022-10-16T01:07:00;77.70;;;34.70;;
68577;SDS011;61668;45.388;11.784;2022-10-16T01:15:25;75.50;;;35.20;;
68577;SDS011;61668;45.388;11.784;2022-10-16T01:20:35;75.80;;;36.80;;
68577;SDS011;61668;45.388;11.784;2022-10-16T01:31:41;73.80;;;34.90;;
68577;SDS011;61668;45.388;11.784;2022-10-16T01:34:22;75.20;;;36.00;;
68577;SDS011;61668;45.388;11.784;2022-10-16T01:37:00;78.80;;;36.00;;
68577;SDS011;61668;45.388;11.784;2022-10-16T01:39:32;82.40;;;35.60;;
68577;SDS011;61668;45.388;11.784;2022-10-16T01:42:28;73.60;;;35.50;;
68577;SDS011;61668;45.388;11.784;2022-10-16T01:45:00;80.80;;;37.70;;
68577;SDS011;61668;45.388;11.784;2022-10-16T01:47:27;79.90;;;36.60;;
68577;SDS011;61668;45.388;11.784;2022-10-16T01:49:53;81.50;;;37.60;;
68577;SDS011;61668;45.388;11.784;2022-10-16T01:52:26;77.20;;;36.50;;
68577;SDS011;61668;45.388;11.784;2022-10-16T01:54:54;75.00;;;35.00;;
68577;SDS011;61668;45.388;11.784;2022-10-16T01:57:24;77.50;;;37.00;;
68577;SDS011;61668;45.388;11.784;2022-10-16T01:59:54;79.50;;;36.20;;
68577;SDS011;61668;45.388;11.784;2022-10-16T02:02:22;78.70;;;38.20;;
68577;SDS011;61668;45.388;11.784;2022-10-16T02:04:56;75.30;;;35.20;;
68577;SDS011;61668;45.388;11.784;2022-10-16T02:07:24;76.40;;;36.70;;
68577;SDS011;61668;45.388;11.784;2022-10-16T02:09:50;79.70;;;36.50;;
68577;SDS011;61668;45.388;11.784;2022-10-16T02:12:24;80.90;;;36.60;;
68577;SDS011;61668;45.388;11.784;2022-10-16T02:14:52;79.60;;;36.80;;
68577;SDS011;61668;45.388;11.784;2022-10-16T02:17:18;81.90;;;38.50;;
68577;SDS011;61668;45.388;11.784;2022-10-16T02:19:49;81.40;;;39.60;;
68577;SDS011;61668;45.388;11.784;2022-10-16T02:22:34;75.00;;;36.10;;
68577;SDS011;61668;45.388;11.784;2022-10-16T02:25:09;82.30;;;36.90;;
68577;SDS011;61668;45.388;11.784;2022-10-16T02:28:37;77.60;;;36.60;;
68577;SDS011;61668;45.388;11.784;2022-10-16T02:31:09;77.10;;;35.50;;
68577;SDS011;61668;45.388;11.784;2022-10-16T02:33:38;79.30;;;35.60;;
68577;SDS011;61668;45.388;11.784;2022-10-16T02:36:05;75.90;;;35.50;;
68577;SDS011;61668;45.388;11.784;2022-10-16T02:38:32;85.20;;;39.20;;
68577;SDS011;61668;45.388;11.784;2022-10-16T02:40:58;82.30;;;39.40;;
68577;SDS011;61668;45.388;11.784;2022-10-16T02:43:24;77.60;;;40.00;;
68577;SDS011;61668;45.388;11.784;2022-10-16T02:45:51;81.90;;;38.70;;
68577;SDS011;61668;45.388;11.784;2022-10-16T02:48:16;87.60;;;40.20;;
68577;SDS011;61668;45.388;11.784;2022-10-16T02:50:41;81.30;;;36.60;;
68577;SDS011;61668;45.388;11.784;2022-10-16T02:53:07;76.20;;;36.80;;
68577;SDS011;61668;45.388;11.784;2022-10-16T02:55:32;77.30;;;36.20;;
68577;SDS011;61668;45.388;11.784;2022-10-16T02:57:58;74.10;;;35.50;;
68577;SDS011;61668;45.388;11.784;2022-10-16T03:00:23;75.90;;;37.50;;
68577;SDS011;61668;45.388;11.784;2022-10-16T03:02:49;72.70;;;34.60;;
68577;SDS011;61668;45.388;11.784;2022-10-16T03:05:16;76.40;;;35.70;;
68577;SDS011;61668;45.388;11.784;2022-10-16T03:07:41;72.00;;;33.20;;
68577;SDS011;61668;45.388;11.784;2022-10-16T03:10:07;75.60;;;35.40;;
68577;SDS011;61668;45.388;11.784;2022-10-16T03:12:33;81.40;;;38.40;;
68577;SDS011;61668;45.388;11.784;2022-10-16T03:14:59;73.40;;;35.70;;
68577;SDS011;61668;45.388;11.784;2022-10-16T03:17:25;78.70;;;36.60;;
68577;SDS011;61668;45.388;11.784;2022-10-16T03:19:51;81.90;;;37.30;;
68577;SDS011;61668;45.388;11.784;2022-10-16T03:22:16;80.50;;;35.10;;
68577;SDS011;61668;45.388;11.784;2022-10-16T03:24:42;81.50;;;39.20;;
68577;SDS011;61668;45.388;11.784;2022-10-16T03:27:07;80.00;;;37.40;;
68577;SDS011;61668;45.388;11.784;2022-10-16T03:29:33;81.70;;;38.80;;
68577;SDS011;61668;45.388;11.784;2022-10-16T03:31:59;85.60;;;37.80;;
68577;SDS011;61668;45.388;11.784;2022-10-16T03:34:25;80.40;;;38.00;;
68577;SDS011;61668;45.388;11.784;2022-10-16T03:36:51;82.90;;;36.50;;
68577;SDS011;61668;45.388;11.784;2022-10-16T03:39:17;84.80;;;38.50;;
68577;SDS011;61668;45.388;11.784;2022-10-16T03:41:42;87.90;;;41.60;;
68577;SDS011;61668;45.388;11.784;2022-10-16T03:44:08;79.20;;;37.80;;
68577;SDS011;61668;45.388;11.784;2022-10-16T03:46:33;81.30;;;39.10;;
68577;SDS011;61668;45.388;11.784;2022-10-16T03:48:59;84.80;;;41.10;;
68577;SDS011;61668;45.388;11.784;2022-10-16T03:51:24;80.40;;;38.80;;
68577;SDS011;61668;45.388;11.784;2022-10-16T03:53:49;80.10;;;37.70;;
68577;SDS011;61668;45.388;11.784;2022-10-16T03:56:15;78.90;;;37.20;;
68577;SDS011;61668;45.388;11.784;2022-10-16T03:58:41;77.20;;;37.40;;
68577;SDS011;61668;45.388;11.784;2022-10-16T04:01:06;82.30;;;37.00;;
68577;SDS011;61668;45.388;11.784;2022-10-16T04:03:32;78.00;;;36.50;;
68577;SDS011;61668;45.388;11.784;2022-10-16T04:05:58;80.10;;;37.00;;
68577;SDS011;61668;45.388;11.784;2022-10-16T04:08:23;79.80;;;37.20;;
68577;SDS011;61668;45.388;11.784;2022-10-16T04:10:49;77.00;;;35.80;;
68577;SDS011;61668;45.388;11.784;2022-10-16T04:13:14;77.50;;;37.50;;
68577;SDS011;61668;45.388;11.784;2022-10-16T04:15:40;83.20;;;38.40;;
68577;SDS011;61668;45.388;11.784;2022-10-16T04:18:06;77.70;;;37.30;;
68577;SDS011;61668;45.388;11.784;2022-10-16T04:20:32;80.20;;;37.70;;
68577;SDS011;61668;45.388;11.784;2022-10-16T04:22:58;77.90;;;37.60;;
68577;SDS011;61668;45.388;11.784;2022-10-16T04:25:23;84.20;;;38.10;;
68577;SDS011;61668;45.388;11.784;2022-10-16T04:27:49;85.30;;;39.40;;
68577;SDS011;61668;45.388;11.784;2022-10-16T04:30:14;76.80;;;36.40;;
68577;SDS011;61668;45.388;11.784;2022-10-16T04:32:40;78.40;;;37.60;;
68577;SDS011;61668;45.388;11.784;2022-10-16T04:35:06;80.30;;;37.60;;
68577;SDS011;61668;45.388;11.784;2022-10-16T04:37:32;86.50;;;39.20;;
68577;SDS011;61668;45.388;11.784;2022-10-16T04:39:58;80.20;;;36.70;;
68577;SDS011;61668;45.388;11.784;2022-10-16T04:42:23;77.80;;;36.00;;
68577;SDS011;61668;45.388;11.784;2022-10-16T04:44:49;84.20;;;39.80;;
68577;SDS011;61668;45.388;11.784;2022-10-16T04:47:15;82.20;;;39.30;;
68577;SDS011;61668;45.388;11.784;2022-10-16T04:49:40;78.40;;;39.10;;
68577;SDS011;61668;45.388;11.784;2022-10-16T04:52:06;83.20;;;40.90;;
68577;SDS011;61668;45.388;11.784;2022-10-16T04:54:31;78.10;;;36.80;;
68577;SDS011;61668;45.388;11.784;2022-10-16T04:56:57;76.10;;;37.50;;
68577;SDS011;61668;45.388;11.784;2022-10-16T04:59:23;85.00;;;38.00;;
68577;SDS011;61668;45.388;11.784;2022-10-16T05:01:49;82.50;;;37.70;;
68577;SDS011;61668;45.388;11.784;2022-10-16T05:04:15;78.50;;;37.20;;
68577;SDS011;61668;45.388;11.784;2022-10-16T05:06:41;77.80;;;37.30;;
68577;SDS011;61668;45.388;11.784;2022-10-16T05:09:07;80.00;;;38.10;;
68577;SDS011;61668;45.388;11.784;2022-10-16T05:11:34;80.20;;;38.80;;
68577;SDS011;61668;45.388;11.784;2022-10-16T05:13:59;80.70;;;38.40;;
68577;SDS011;61668;45.388;11.784;2022-10-16T05:16:25;80.30;;;36.80;;
68577;SDS011;61668;45.388;11.784;2022-10-16T05:18:51;75.80;;;37.20;;
68577;SDS011;61668;45.388;11.784;2022-10-16T05:21:17;76.90;;;36.10;;
68577;SDS011;61668;45.388;11.784;2022-10-16T05:23:43;84.80;;;38.20;;
68577;SDS011;61668;45.388;11.784;2022-10-16T05:26:09;76.10;;;35.50;;
68577;SDS011;61668;45.388;11.784;2022-10-16T05:28:35;83.80;;;38.70;;
68577;SDS011;61668;45.388;11.784;2022-10-16T05:31:05;75.30;;;34.90;;
68577;SDS011;61668;45.388;11.784;2022-10-16T05:33:32;77.30;;;37.20;;
68577;SDS011;61668;45.388;11.784;2022-10-16T05:36:04;73.80;;;36.50;;
68577;SDS011;61668;45.388;11.784;2022-10-16T05:38:33;74.30;;;36.80;;
68577;SDS011;61668;45.388;11.784;2022-10-16T05:40:59;77.00;;;36.10;;
68577;SDS011;61668;45.388;11.784;2022-10-16T05:43:27;73.40;;;36.00;;
68577;SDS011;61668;45.388;11.784;2022-10-16T05:45:57;78.80;;;35.20;;
68577;SDS011;61668;45.388;11.784;2022-10-16T05:48:24;75.70;;;35.00;;
68577;SDS011;61668;45.388;11.784;2022-10-16T05:51:02;75.20;;;38.30;;
68577;SDS011;61668;45.388;11.784;2022-10-16T05:53:30;73.20;;;35.70;;
68577;SDS011;61668;45.388;11.784;2022-10-16T05:55:58;76.10;;;35.60;;
68577;SDS011;61668;45.388;11.784;2022-10-16T05:58:25;76.90;;;37.00;;
68577;SDS011;61668;45.388;11.784;2022-10-16T06:00:58;75.80;;;36.20;;
68577;SDS011;61668;45.388;11.784;2022-10-16T06:03:25;78.80;;;35.00;;
68577;SDS011;61668;45.388;11.784;2022-10-16T06:05:50;73.80;;;34.70;;
68577;SDS011;61668;45.388;11.784;2022-10-16T06:08:17;67.10;;;32.40;;
68577;SDS011;61668;45.388;11.784;2022-10-16T06:10:43;76.40;;;33.40;;
68577;SDS011;61668;45.388;11.784;2022-10-16T06:13:09;71.00;;;33.90;;
68577;SDS011;61668;45.388;11.784;2022-10-16T06:15:35;75.30;;;35.60;;
68577;SDS011;61668;45.388;11.784;2022-10-16T06:18:01;73.70;;;36.40;;
68577;SDS011;61668;45.388;11.784;2022-10-16T06:20:26;73.00;;;35.40;;
68577;SDS011;61668;45.388;11.784;2022-10-16T06:22:52;72.80;;;35.30;;
68577;SDS011;61668;45.388;11.784;2022-10-16T06:25:17;78.40;;;36.80;;
68577;SDS011;61668;45.388;11.784;2022-10-16T06:27:43;69.50;;;33.50;;
68577;SDS011;61668;45.388;11.784;2022-10-16T06:30:09;68.80;;;33.50;;
68577;SDS011;61668;45.388;11.784;2022-10-16T06:32:35;67.40;;;31.30;;
68577;SDS011;61668;45.388;11.784;2022-10-16T06:35:00;70.60;;;32.40;;
68577;SDS011;61668;45.388;11.784;2022-10-16T06:37:26;75.50;;;36.70;;
68577;SDS011;61668;45.388;11.784;2022-10-16T06:39:52;77.00;;;35.00;;
68577;SDS011;61668;45.388;11.784;2022-10-16T06:42:18;71.90;;;32.70;;
68577;SDS011;61668;45.388;11.784;2022-10-16T06:44:44;71.20;;;33.20;;
68577;SDS011;61668;45.388;11.784;2022-10-16T06:47:10;69.60;;;32.90;;
68577;SDS011;61668;45.388;11.784;2022-10-16T06:49:35;72.70;;;35.50;;
68577;SDS011;61668;45.388;11.784;2022-10-16T06:52:01;73.90;;;34.70;;
68577;SDS011;61668;45.388;11.784;2022-10-16T06:54:27;67.90;;;33.30;;
68577;SDS011;61668;45.388;11.784;2022-10-16T06:56:53;69.20;;;33.80;;
68577;SDS011;61668;45.388;11.784;2022-10-16T06:59:20;74.90;;;34.20;;
68577;SDS011;61668;45.388;11.784;2022-10-16T07:01:46;68.10;;;31.70;;
68577;SDS011;61668;45.388;11.784;2022-10-16T07:04:12;69.10;;;32.20;;
68577;SDS011;61668;45.388;11.784;2022-10-16T07:06:38;68.60;;;32.80;;
68577;SDS011;61668;45.388;11.784;2022-10-16T07:09:06;69.70;;;32.70;;
68577;SDS011;61668;45.388;11.784;2022-10-16T07:11:34;70.50;;;34.10;;
68577;SDS011;61668;45.388;11.784;2022-10-16T07:14:02;70.00;;;32.10;;
68577;SDS011;61668;45.388;11.784;2022-10-16T07:16:30;69.10;;;35.10;;
68577;SDS011;61668;45.388;11.784;2022-10-16T07:18:58;65.60;;;32.80;;
68577;SDS011;61668;45.388;11.784;2022-10-16T07:21:26;68.70;;;34.50;;
68577;SDS011;61668;45.388;11.784;2022-10-16T07:23:59;67.80;;;33.20;;
68577;SDS011;61668;45.388;11.784;2022-10-16T07:26:28;69.30;;;31.80;;
68577;SDS011;61668;45.388;11.784;2022-10-16T07:28:55;65.90;;;33.20;;
68577;SDS011;61668;45.388;11.784;2022-10-16T07:31:22;68.10;;;32.90;;
68577;SDS011;61668;45.388;11.784;2022-10-16T07:33:49;61.60;;;31.00;;
68577;SDS011;61668;45.388;11.784;2022-10-16T07:36:16;67.00;;;33.10;;
68577;SDS011;61668;45.388;11.784;2022-10-16T07:38:43;64.40;;;31.70;;
68577;SDS011;61668;45.388;11.784;2022-10-16T07:41:12;72.90;;;34.10;;
68577;SDS011;61668;45.388;11.784;2022-10-16T07:43:39;70.10;;;34.30;;
68577;SDS011;61668;45.388;11.784;2022-10-16T07:46:05;64.20;;;32.40;;
68577;SDS011;61668;45.388;11.784;2022-10-16T07:48:33;63.90;;;32.30;;
68577;SDS011;61668;45.388;11.784;2022-10-16T07:51:00;62.30;;;32.20;;
68577;SDS011;61668;45.388;11.784;2022-10-16T07:53:27;63.50;;;32.40;;
68577;SDS011;61668;45.388;11.784;2022-10-16T07:56:05;66.10;;;33.30;;
68577;SDS011;61668;45.388;11.784;2022-10-16T07:58:32;66.90;;;33.60;;
68577;SDS011;61668;45.388;11.784;2022-10-16T08:00:59;69.70;;;33.70;;
68577;SDS011;61668;45.388;11.784;2022-10-16T08:03:32;80.60;;;34.50;;
68577;SDS011;61668;45.388;11.784;2022-10-16T08:05:59;66.20;;;34.20;;
68577;SDS011;61668;45.388;11.784;2022-10-16T08:08:25;63.90;;;32.60;;
68577;SDS011;61668;45.388;11.784;2022-10-16T08:10:51;66.60;;;33.80;;
68577;SDS011;61668;45.388;11.784;2022-10-16T08:13:17;64.40;;;32.70;;
68577;SDS011;61668;45.388;11.784;2022-10-16T08:15:44;64.70;;;32.20;;
68577;SDS011;61668;45.388;11.784;2022-10-16T08:18:11;66.80;;;32.60;;
68577;SDS011;61668;45.388;11.784;2022-10-16T08:20:39;61.90;;;32.40;;
68577;SDS011;61668;45.388;11.784;2022-10-16T08:23:05;64.10;;;33.10;;
68577;SDS011;61668;45.388;11.784;2022-10-16T08:25:31;63.70;;;33.00;;
68577;SDS011;61668;45.388;11.784;2022-10-16T08:27:56;61.00;;;33.50;;
68577;SDS011;61668;45.388;11.784;2022-10-16T08:30:23;60.00;;;33.10;;
68577;SDS011;61668;45.388;11.784;2022-10-16T08:32:49;63.90;;;33.40;;
68577;SDS011;61668;45.388;11.784;2022-10-16T08:35:15;61.60;;;34.50;;
68577;SDS011;61668;45.388;11.784;2022-10-16T08:37:41;61.50;;;33.20;;
68577;SDS011;61668;45.388;11.784;2022-10-16T08:40:17;65.30;;;35.30;;
68577;SDS011;61668;45.388;11.784;2022-10-16T08:43:18;61.60;;;34.30;;
68577;SDS011;61668;45.388;11.784;2022-10-16T08:48:52;63.30;;;33.50;;
68577;SDS011;61668;45.388;11.784;2022-10-16T08:56:20;64.60;;;33.80;;
68577;SDS011;61668;45.388;11.784;2022-10-16T08:58:46;65.10;;;34.70;;
68577;SDS011;61668;45.388;11.784;2022-10-16T09:01:15;63.00;;;32.60;;
68577;SDS011;61668;45.388;11.784;2022-10-16T09:09:19;65.00;;;33.50;;
68577;SDS011;61668;45.388;11.784;2022-10-16T09:23:25;61.20;;;32.40;;
68577;SDS011;61668;45.388;11.784;2022-10-16T09:25:52;60.60;;;35.30;;
68577;SDS011;61668;45.388;11.784;2022-10-16T09:28:19;59.70;;;33.00;;
68577;SDS011;61668;45.388;11.784;2022-10-16T09:30:45;60.40;;;32.80;;
68577;SDS011;61668;45.388;11.784;2022-10-16T09:33:15;60.90;;;33.80;;
68577;SDS011;61668;45.388;11.784;2022-10-16T09:35:53;60.50;;;34.20;;
68577;SDS011;61668;45.388;11.784;2022-10-16T09:38:29;57.10;;;31.80;;
68577;SDS011;61668;45.388;11.784;2022-10-16T09:46:44;54.90;;;31.80;;
68577;SDS011;61668;45.388;11.784;2022-10-16T09:49:25;58.40;;;33.60;;
68577;SDS011;61668;45.388;11.784;2022-10-16T09:52:03;59.90;;;34.90;;
68577;SDS011;61668;45.388;11.784;2022-10-16T09:54:52;57.30;;;32.40;;
68577;SDS011;61668;45.388;11.784;2022-10-16T09:57:20;58.40;;;31.80;;
68577;SDS011;61668;45.388;11.784;2022-10-16T09:59:51;54.30;;;31.20;;
68577;SDS011;61668;45.388;11.784;2022-10-16T10:02:23;56.80;;;32.90;;
68577;SDS011;61668;45.388;11.784;2022-10-16T10:04:53;55.30;;;30.60;;
68577;SDS011;61668;45.388;11.784;2022-10-16T10:07:34;52.70;;;29.90;;
68577;SDS011;61668;45.388;11.784;2022-10-16T10:10:04;58.30;;;31.20;;
68577;SDS011;61668;45.388;11.784;2022-10-16T10:12:32;51.90;;;28.90;;
68577;SDS011;61668;45.388;11.784;2022-10-16T10:15:09;50.20;;;28.30;;
68577;SDS011;61668;45.388;11.784;2022-10-16T10:17:46;47.10;;;27.30;;
68577;SDS011;61668;45.388;11.784;2022-10-16T10:20:30;43.30;;;25.10;;
68577;SDS011;61668;45.388;11.784;2022-10-16T10:23:01;41.60;;;23.90;;
68577;SDS011;61668;45.388;11.784;2022-10-16T10:33:55;47.20;;;27.30;;
68577;SDS011;61668;45.388;11.784;2022-10-16T10:36:39;43.90;;;27.20;;
68577;SDS011;61668;45.388;11.784;2022-10-16T10:50:39;42.30;;;24.90;;
68577;SDS011;61668;45.388;11.784;2022-10-16T11:08:30;45.70;;;26.70;;
68577;SDS011;61668;45.388;11.784;2022-10-16T11:11:02;47.30;;;26.70;;
68577;SDS011;61668;45.388;11.784;2022-10-16T11:13:33;39.70;;;23.50;;
68577;SDS011;61668;45.388;11.784;2022-10-16T11:16:28;46.50;;;26.30;;
68577;SDS011;61668;45.388;11.784;2022-10-16T11:19:03;42.70;;;25.40;;
68577;SDS011;61668;45.388;11.784;2022-10-16T11:21:47;42.10;;;25.20;;
68577;SDS011;61668;45.388;11.784;2022-10-16T11:24:22;42.00;;;25.40;;
68577;SDS011;61668;45.388;11.784;2022-10-16T11:27:09;39.00;;;24.40;;
68577;SDS011;61668;45.388;11.784;2022-10-16T11:29:55;44.30;;;25.10;;
68577;SDS011;61668;45.388;11.784;2022-10-16T11:32:32;42.00;;;23.50;;
68577;SDS011;61668;45.388;11.784;2022-10-16T11:35:32;45.00;;;25.40;;
68577;SDS011;61668;45.388;11.784;2022-10-16T11:38:02;39.50;;;25.10;;
68577;SDS011;61668;45.388;11.784;2022-10-16T11:40:38;42.10;;;24.50;;
68577;SDS011;61668;45.388;11.784;2022-10-16T11:43:14;40.80;;;22.40;;
68577;SDS011;61668;45.388;11.784;2022-10-16T11:45:46;41.00;;;24.20;;
68577;SDS011;61668;45.388;11.784;2022-10-16T11:48:46;42.60;;;24.50;;
68577;SDS011;61668;45.388;11.784;2022-10-16T11:51:33;43.10;;;23.40;;
68577;SDS011;61668;45.388;11.784;2022-10-16T11:54:20;45.40;;;25.30;;
68577;SDS011;61668;45.388;11.784;2022-10-16T11:56:53;39.60;;;23.40;;
68577;SDS011;61668;45.388;11.784;2022-10-16T11:59:52;39.60;;;23.60;;
68577;SDS011;61668;45.388;11.784;2022-10-16T12:02:54;39.80;;;23.70;;
68577;SDS011;61668;45.388;11.784;2022-10-16T12:08:12;39.10;;;22.60;;
68577;SDS011;61668;45.388;11.784;2022-10-16T12:10:43;38.90;;;24.00;;
68577;SDS011;61668;45.388;11.784;2022-10-16T12:18:41;38.90;;;21.20;;
68577;SDS011;61668;45.388;11.784;2022-10-16T12:21:08;36.60;;;22.40;;
68577;SDS011;61668;45.388;11.784;2022-10-16T12:23:47;38.70;;;22.60;;
68577;SDS011;61668;45.388;11.784;2022-10-16T12:26:24;36.40;;;22.20;;
68577;SDS011;61668;45.388;11.784;2022-10-16T12:28:54;38.50;;;23.00;;
68577;SDS011;61668;45.388;11.784;2022-10-16T12:31:20;37.10;;;21.60;;
68577;SDS011;61668;45.388;11.784;2022-10-16T12:33:59;39.70;;;23.40;;
68577;SDS011;61668;45.388;11.784;2022-10-16T12:36:32;38.90;;;21.90;;
68577;SDS011;61668;45.388;11.784;2022-10-16T12:38:59;38.50;;;23.10;;
68577;SDS011;61668;45.388;11.784;2022-10-16T12:41:33;41.40;;;24.00;;
68577;SDS011;61668;45.388;11.784;2022-10-16T12:44:01;37.80;;;23.10;;
68577;SDS011;61668;45.388;11.784;2022-10-16T12:51:54;39.40;;;22.40;;
68577;SDS011;61668;45.388;11.784;2022-10-16T12:54:21;39.70;;;22.90;;
68577;SDS011;61668;45.388;11.784;2022-10-16T13:23:15;41.40;;;23.20;;
68577;SDS011;61668;45.388;11.784;2022-10-16T13:28:33;34.40;;;21.40;;
68577;SDS011;61668;45.388;11.784;2022-10-16T13:31:01;34.40;;;21.40;;
68577;SDS011;61668;45.388;11.784;2022-10-16T13:33:36;38.00;;;22.50;;
68577;SDS011;61668;45.388;11.784;2022-10-16T13:36:04;40.30;;;22.30;;
68577;SDS011;61668;45.388;11.784;2022-10-16T13:38:32;40.60;;;22.40;;
68577;SDS011;61668;45.388;11.784;2022-10-16T13:41:05;37.80;;;22.20;;
68577;SDS011;61668;45.388;11.784;2022-10-16T13:43:50;39.70;;;23.50;;
68577;SDS011;61668;45.388;11.784;2022-10-16T13:46:26;34.20;;;21.20;;
68577;SDS011;61668;45.388;11.784;2022-10-16T13:49:06;36.30;;;22.00;;
68577;SDS011;61668;45.388;11.784;2022-10-16T13:51:38;36.30;;;21.80;;
68577;SDS011;61668;45.388;11.784;2022-10-16T13:54:03;37.00;;;22.80;;
68577;SDS011;61668;45.388;11.784;2022-10-16T13:56:31;39.60;;;22.60;;
68577;SDS011;61668;45.388;11.784;2022-10-16T14:01:40;38.10;;;22.00;;
68577;SDS011;61668;45.388;11.784;2022-10-16T14:04:09;37.40;;;23.20;;
68577;SDS011;61668;45.388;11.784;2022-10-16T14:06:40;39.80;;;22.20;;
68577;SDS011;61668;45.388;11.784;2022-10-16T14:09:11;38.90;;;23.60;;
68577;SDS011;61668;45.388;11.784;2022-10-16T14:11:51;38.80;;;22.70;;
68577;SDS011;61668;45.388;11.784;2022-10-16T14:14:47;41.70;;;22.70;;
68577;SDS011;61668;45.388;11.784;2022-10-16T14:17:31;37.70;;;21.80;;
68577;SDS011;61668;45.388;11.784;2022-10-16T14:20:00;38.00;;;22.90;;
68577;SDS011;61668;45.388;11.784;2022-10-16T14:22:33;37.70;;;22.00;;
68577;SDS011;61668;45.388;11.784;2022-10-16T14:25:24;35.00;;;21.20;;
68577;SDS011;61668;45.388;11.784;2022-10-16T14:28:17;36.90;;;21.90;;
68577;SDS011;61668;45.388;11.784;2022-10-16T14:30:54;37.00;;;21.10;;
68577;SDS011;61668;45.388;11.784;2022-10-16T14:33:32;38.50;;;21.20;;
68577;SDS011;61668;45.388;11.784;2022-10-16T14:36:14;34.70;;;19.90;;
68577;SDS011;61668;45.388;11.784;2022-10-16T14:38:52;37.00;;;22.50;;
68577;SDS011;61668;45.388;11.784;2022-10-16T14:41:23;36.30;;;21.30;;
68577;SDS011;61668;45.388;11.784;2022-10-16T14:43:56;35.30;;;20.10;;
68577;SDS011;61668;45.388;11.784;2022-10-16T14:51:35;39.30;;;22.60;;
68577;SDS011;61668;45.388;11.784;2022-10-16T14:54:08;35.00;;;21.40;;
68577;SDS011;61668;45.388;11.784;2022-10-16T14:59:27;36.90;;;21.50;;
68577;SDS011;61668;45.388;11.784;2022-10-16T15:01:55;37.10;;;21.60;;
68577;SDS011;61668;45.388;11.784;2022-10-16T15:04:21;37.10;;;21.40;;
68577;SDS011;61668;45.388;11.784;2022-10-16T15:06:47;35.10;;;19.80;;
68577;SDS011;61668;45.388;11.784;2022-10-16T15:09:12;37.60;;;22.00;;
68577;SDS011;61668;45.388;11.784;2022-10-16T15:11:39;36.00;;;20.40;;
68577;SDS011;61668;45.388;11.784;2022-10-16T15:14:04;34.40;;;22.00;;
68577;SDS011;61668;45.388;11.784;2022-10-16T15:16:32;35.00;;;21.20;;
68577;SDS011;61668;45.388;11.784;2022-10-16T15:18:58;35.30;;;20.20;;
68577;SDS011;61668;45.388;11.784;2022-10-16T15:21:29;37.40;;;20.10;;
68577;SDS011;61668;45.388;11.784;2022-10-16T15:23:56;34.90;;;19.90;;
68577;SDS011;61668;45.388;11.784;2022-10-16T15:26:24;37.10;;;21.10;;
68577;SDS011;61668;45.388;11.784;2022-10-16T15:28:51;38.70;;;22.90;;
68577;SDS011;61668;45.388;11.784;2022-10-16T15:31:17;33.20;;;20.50;;
68577;SDS011;61668;45.388;11.784;2022-10-16T15:33:43;36.60;;;19.80;;
68577;SDS011;61668;45.388;11.784;2022-10-16T15:36:13;30.80;;;19.20;;
68577;SDS011;61668;45.388;11.784;2022-10-16T15:38:39;32.50;;;20.20;;
68577;SDS011;61668;45.388;11.784;2022-10-16T15:41:04;32.20;;;20.10;;
68577;SDS011;61668;45.388;11.784;2022-10-16T15:43:30;34.60;;;20.20;;
68577;SDS011;61668;45.388;11.784;2022-10-16T15:46:08;37.60;;;23.00;;
68577;SDS011;61668;45.388;11.784;2022-10-16T15:48:36;36.20;;;21.70;;
68577;SDS011;61668;45.388;11.784;2022-10-16T15:51:06;40.00;;;21.90;;
68577;SDS011;61668;45.388;11.784;2022-10-16T15:53:33;40.20;;;22.50;;
68577;SDS011;61668;45.388;11.784;2022-10-16T15:56:07;37.00;;;22.20;;
68577;SDS011;61668;45.388;11.784;2022-10-16T15:58:33;38.60;;;22.20;;
68577;SDS011;61668;45.388;11.784;2022-10-16T16:01:00;41.00;;;21.80;;
68577;SDS011;61668;45.388;11.784;2022-10-16T16:03:27;40.40;;;23.30;;
68577;SDS011;61668;45.388;11.784;2022-10-16T16:05:54;41.90;;;25.10;;
68577;SDS011;61668;45.388;11.784;2022-10-16T16:08:20;43.50;;;26.40;;
68577;SDS011;61668;45.388;11.784;2022-10-16T16:11:08;42.40;;;24.10;;
68577;SDS011;61668;45.388;11.784;2022-10-16T16:13:34;45.00;;;26.20;;
68577;SDS011;61668;45.388;11.784;2022-10-16T16:16:06;43.90;;;25.20;;
68577;SDS011;61668;45.388;11.784;2022-10-16T16:18:33;39.50;;;22.20;;
68577;SDS011;61668;45.388;11.784;2022-10-16T16:20:58;41.50;;;24.10;;
68577;SDS011;61668;45.388;11.784;2022-10-16T16:23:24;42.60;;;25.10;;
68577;SDS011;61668;45.388;11.784;2022-10-16T16:26:29;37.00;;;23.10;;
68577;SDS011;61668;45.388;11.784;2022-10-16T16:29:00;40.80;;;22.90;;
68577;SDS011;61668;45.388;11.784;2022-10-16T16:31:27;41.20;;;23.40;;
68577;SDS011;61668;45.388;11.784;2022-10-16T16:33:53;40.80;;;24.50;;
68577;SDS011;61668;45.388;11.784;2022-10-16T16:36:20;40.60;;;23.30;;
68577;SDS011;61668;45.388;11.784;2022-10-16T16:38:46;42.50;;;26.20;;
68577;SDS011;61668;45.388;11.784;2022-10-16T16:41:20;40.40;;;23.80;;
68577;SDS011;61668;45.388;11.784;2022-10-16T16:43:47;43.10;;;23.90;;
68577;SDS011;61668;45.388;11.784;2022-10-16T16:46:14;45.10;;;25.80;;